createdAt,value
2018-10-19T00:00:36.826Z,90.39
2018-10-19T00:01:36.581Z,91.16
2018-10-19T00:02:36.563Z,90.54
2018-10-19T00:03:36.822Z,90.68
2018-10-19T00:04:36.798Z,90.92
2018-10-19T00:05:36.805Z,91.5
2018-10-19T00:06:36.783Z,91.5
2018-10-19T00:07:36.797Z,92.93
2018-10-19T00:08:36.816Z,92.88
2018-10-19T00:09:36.804Z,92.79
2018-10-19T00:10:36.768Z,92.69
2018-10-19T00:11:36.761Z,93.07
2018-10-19T00:12:36.835Z,92.97
2018-10-19T00:13:36.735Z,93.65
2018-10-19T00:14:36.733Z,93.74
2018-10-19T00:15:36.474Z,93.65
2018-10-19T00:16:36.727Z,94.17
2018-10-19T00:17:36.698Z,94.27
2018-10-19T00:18:36.705Z,94.17
2018-10-19T00:19:36.704Z,94.56
2018-10-19T00:20:36.676Z,94.56
2018-10-19T00:21:36.687Z,94.36
2018-10-19T00:22:36.415Z,94.41
2018-10-19T00:23:36.670Z,94.51
2018-10-19T00:24:36.650Z,94.6
2018-10-19T00:25:36.653Z,94.51
2018-10-19T00:26:36.643Z,94.79
2018-10-19T00:27:36.636Z,94.7
2018-10-19T00:28:36.613Z,94.79
2018-10-19T00:29:36.608Z,94.32
2018-10-19T00:30:36.609Z,94.51
2018-10-19T00:31:36.347Z,94.03
2018-10-19T00:32:36.599Z,94.51
2018-10-19T00:33:36.316Z,93.74
2018-10-19T00:34:36.576Z,94.7
2018-10-19T00:35:36.555Z,94.7
2018-10-19T00:36:36.622Z,94.41
2018-10-19T00:37:36.535Z,94.51
2018-10-19T00:38:36.546Z,94.32
2018-10-19T00:39:36.522Z,94.6
2018-10-19T00:40:36.531Z,94.32
2018-10-19T00:41:36.504Z,94.6
2018-10-19T00:42:36.498Z,94.22
2018-10-19T00:43:36.487Z,94.03
2018-10-19T00:44:36.528Z,93.93
2018-10-19T00:45:36.472Z,94.32
2018-10-19T00:46:36.475Z,93.93
2018-10-19T00:47:36.474Z,94.03
2018-10-19T00:48:36.464Z,93.74
2018-10-19T00:49:36.444Z,93.36
2018-10-19T00:50:36.446Z,93.74
2018-10-19T00:51:36.419Z,94.22
2018-10-19T00:52:36.429Z,93.46
2018-10-19T00:53:36.149Z,93.36
2018-10-19T00:54:36.155Z,93.65
2018-10-19T00:55:36.389Z,93.84
2018-10-19T00:56:36.396Z,94.17
2018-10-19T00:57:36.368Z,93.79
2018-10-19T00:58:36.365Z,93.51
2018-10-19T00:59:36.100Z,93.88
2018-10-19T01:00:36.364Z,93.41
2018-10-19T01:01:36.355Z,92.74
2018-10-19T01:02:36.338Z,92.65
2018-10-19T01:03:36.319Z,92.83
2018-10-19T01:04:36.311Z,92.26
2018-10-19T01:05:36.319Z,93.22
2018-10-19T01:06:36.303Z,92.17
2018-10-19T01:07:36.302Z,92.65
2018-10-19T01:08:36.276Z,92.74
2018-10-19T01:09:36.285Z,92.83
2018-10-19T01:10:36.265Z,92.26
2018-10-19T01:11:36.251Z,92.26
2018-10-19T01:12:36.266Z,92.83
2018-10-19T01:13:36.235Z,92.46
2018-10-19T01:14:36.230Z,92.36
2018-10-19T01:15:36.217Z,92.55
2018-10-19T01:16:36.231Z,92.65
2018-10-19T01:17:36.222Z,92.65
2018-10-19T01:18:36.204Z,92.46
2018-10-19T01:19:36.196Z,92.46
2018-10-19T01:20:36.177Z,92.74
2018-10-19T01:21:36.191Z,92.74
2018-10-19T01:22:36.169Z,92.93
2018-10-19T01:23:36.153Z,92.07
2018-10-19T01:24:36.161Z,92.65
2018-10-19T01:25:35.882Z,92.46
2018-10-19T01:26:36.151Z,92.74
2018-10-19T01:27:36.142Z,91.98
2018-10-19T01:28:36.125Z,92.17
2018-10-19T01:29:36.102Z,91.88
2018-10-19T01:30:36.100Z,91.88
2018-10-19T01:31:36.090Z,92.74
2018-10-19T01:32:36.097Z,92.26
2018-10-19T01:33:36.090Z,92.65
2018-10-19T01:34:36.074Z,92.17
2018-10-19T01:35:36.065Z,92.26
2018-10-19T01:36:36.063Z,91.88
2018-10-19T01:37:36.035Z,92.26
2018-10-19T01:38:36.042Z,91.78
2018-10-19T01:39:35.768Z,92.26
2018-10-19T01:40:36.028Z,92.55
2018-10-19T01:41:36.004Z,92.65
2018-10-19T01:42:35.756Z,92.65
2018-10-19T01:43:35.988Z,92.83
2018-10-19T01:44:36.011Z,92.65
2018-10-19T01:45:35.972Z,92.55
2018-10-19T01:46:35.965Z,91.98
2018-10-19T01:47:35.951Z,91.88
2018-10-19T01:48:35.705Z,92.65
2018-10-19T01:49:35.957Z,91.78
2018-10-19T01:50:35.933Z,91.78
2018-10-19T01:51:35.924Z,91.98
2018-10-19T01:52:35.911Z,91.98
2018-10-19T01:53:35.663Z,92.26
2018-10-19T01:54:35.902Z,91.98
2018-10-19T01:55:35.910Z,92.07
2018-10-19T01:56:35.897Z,91.88
2018-10-19T01:57:35.889Z,92.83
2018-10-19T01:58:35.875Z,92.65
2018-10-19T01:59:35.870Z,92.55
2018-10-19T02:00:35.592Z,92.65
2018-10-19T02:01:35.858Z,91.88
2018-10-19T02:02:35.835Z,92.83
2018-10-19T02:03:35.820Z,92.65
2018-10-19T02:04:35.828Z,92.55
2018-10-19T02:05:35.821Z,92.65
2018-10-19T02:06:35.799Z,92.46
2018-10-19T02:07:35.787Z,92.83
2018-10-19T02:08:35.778Z,92.83
2018-10-19T02:09:35.532Z,92.65
2018-10-19T02:10:35.767Z,92.55
2018-10-19T02:11:35.784Z,92.55
2018-10-19T02:12:35.743Z,92.36
2018-10-19T02:13:35.765Z,92.65
2018-10-19T02:14:35.729Z,92.55
2018-10-19T02:15:35.737Z,92.93
2018-10-19T02:16:35.709Z,92.65
2018-10-19T02:17:35.463Z,92.46
2018-10-19T02:18:35.710Z,92.46
2018-10-19T02:19:35.702Z,92.93
2018-10-19T02:20:35.688Z,92.55
2018-10-19T02:21:35.668Z,92.46
2018-10-19T02:22:35.676Z,92.36
2018-10-19T02:23:35.674Z,92.65
2018-10-19T02:24:35.663Z,92.55
2018-10-19T02:25:35.639Z,92.74
2018-10-19T02:26:35.383Z,92.46
2018-10-19T02:27:35.638Z,92.65
2018-10-19T02:28:35.611Z,92.46
2018-10-19T02:29:35.627Z,92.22
2018-10-19T02:30:35.598Z,92.5
2018-10-19T02:31:35.605Z,92.32
2018-10-19T02:32:35.578Z,92.36
2018-10-19T02:33:35.588Z,92.5
2018-10-19T02:34:35.574Z,92.41
2018-10-19T02:35:35.591Z,92.5
2018-10-19T02:36:35.547Z,92.41
2018-10-19T02:37:35.538Z,92.79
2018-10-19T02:38:35.284Z,92.69
2018-10-19T02:39:35.536Z,92.79
2018-10-19T02:40:35.531Z,92.41
2018-10-19T02:41:35.508Z,92.6
2018-10-19T02:42:35.519Z,92.98
2018-10-19T02:43:35.235Z,92.79
2018-10-19T02:44:35.494Z,92.69
2018-10-19T02:45:35.466Z,92.5
2018-10-19T02:46:35.482Z,92.32
2018-10-19T02:47:35.452Z,92.79
2018-10-19T02:48:35.460Z,92.6
2018-10-19T02:49:35.435Z,92.41
2018-10-19T02:50:35.180Z,92.41
2018-10-19T02:51:35.416Z,92.79
2018-10-19T02:52:35.426Z,92.88
2018-10-19T02:53:35.147Z,92.6
2018-10-19T02:54:35.654Z,92.5
2018-10-19T02:55:35.405Z,92.98
2018-10-19T02:56:35.392Z,92.6
2018-10-19T02:57:35.366Z,92.6
2018-10-19T02:58:35.117Z,92.6
2018-10-19T02:59:35.349Z,92.5
2018-10-19T03:00:35.358Z,92.6
2018-10-19T03:01:35.334Z,93.36
2018-10-19T03:02:35.343Z,92.5
2018-10-19T03:03:35.316Z,92.5
2018-10-19T03:04:35.325Z,92.6
2018-10-19T03:05:35.302Z,92.69
2018-10-19T03:06:35.332Z,93.17
2018-10-19T03:07:35.281Z,92.98
2018-10-19T03:08:35.288Z,92.98
2018-10-19T03:09:35.282Z,92.79
2018-10-19T03:10:35.263Z,92.98
2018-10-19T03:11:35.400Z,92.88
2018-10-19T03:12:34.985Z,92.98
2018-10-19T03:13:35.254Z,92.98
2018-10-19T03:14:35.223Z,93.08
2018-10-19T03:15:35.228Z,93.17
2018-10-19T03:16:35.207Z,93.36
2018-10-19T03:17:35.216Z,93.08
2018-10-19T03:18:35.191Z,93.08
2018-10-19T03:19:35.180Z,93.08
2018-10-19T03:20:35.191Z,93.08
2018-10-19T03:21:35.169Z,93.27
2018-10-19T03:22:35.162Z,92.88
2018-10-19T03:23:35.163Z,92.88
2018-10-19T03:24:35.164Z,92.98
2018-10-19T03:25:35.150Z,93.08
2018-10-19T03:26:35.132Z,93.08
2018-10-19T03:27:35.109Z,92.79
2018-10-19T03:28:35.100Z,92.88
2018-10-19T03:29:35.111Z,93.17
2018-10-19T03:30:35.092Z,93.36
2018-10-19T03:31:35.100Z,93.65
2018-10-19T03:32:35.080Z,93.36
2018-10-19T03:33:35.075Z,93.36
2018-10-19T03:34:35.050Z,93.74
2018-10-19T03:35:35.059Z,93.74
2018-10-19T03:36:35.041Z,93.27
2018-10-19T03:37:35.040Z,93.55
2018-10-19T03:38:35.033Z,93.74
2018-10-19T03:39:35.021Z,93.65
2018-10-19T03:40:34.993Z,93.55
2018-10-19T03:41:34.989Z,93.46
2018-10-19T03:42:34.992Z,93.65
2018-10-19T03:43:34.989Z,94.03
2018-10-19T03:44:34.964Z,93.08
2018-10-19T03:45:34.974Z,93.27
2018-10-19T03:46:34.954Z,93.36
2018-10-19T03:47:34.957Z,93.55
2018-10-19T03:48:34.926Z,93.74
2018-10-19T03:49:34.679Z,93.55
2018-10-19T03:50:34.908Z,93.46
2018-10-19T03:51:34.922Z,93.84
2018-10-19T03:52:34.890Z,93.74
2018-10-19T03:53:34.904Z,93.08
2018-10-19T03:54:34.886Z,93.46
2018-10-19T03:55:34.881Z,93.93
2018-10-19T03:56:34.855Z,93.46
2018-10-19T03:57:34.850Z,93.36
2018-10-19T03:58:34.857Z,93.55
2018-10-19T03:59:34.849Z,93.27
2018-10-19T04:00:34.583Z,93.27
2018-10-19T04:01:34.818Z,93.36
2018-10-19T04:02:34.819Z,93.93
2018-10-19T04:03:35.047Z,93.17
2018-10-19T04:04:34.804Z,93.46
2018-10-19T04:05:34.780Z,93.74
2018-10-19T04:06:34.785Z,93.65
2018-10-19T04:07:34.761Z,93.84
2018-10-19T04:08:34.767Z,93.74
2018-10-19T04:09:34.755Z,92.79
2018-10-19T04:10:34.746Z,93.17
2018-10-19T04:11:34.747Z,93.27
2018-10-19T04:12:34.472Z,92.69
2018-10-19T04:13:34.706Z,93.08
2018-10-19T04:14:34.720Z,93.08
2018-10-19T04:15:34.719Z,92.98
2018-10-19T04:16:34.702Z,93.08
2018-10-19T04:17:34.675Z,93.36
2018-10-19T04:18:34.683Z,93.17
2018-10-19T04:19:34.655Z,93.27
2018-10-19T04:20:34.667Z,92.41
2018-10-19T04:21:34.650Z,92.5
2018-10-19T04:22:34.653Z,93.08
2018-10-19T04:23:34.625Z,92.98
2018-10-19T04:24:34.634Z,92.5
2018-10-19T04:25:34.613Z,92.98
2018-10-19T04:26:34.630Z,92.98
2018-10-19T04:27:34.814Z,92.41
2018-10-19T04:28:34.605Z,92.69
2018-10-19T04:29:34.592Z,92.98
2018-10-19T04:30:34.315Z,92.5
2018-10-19T04:31:34.560Z,92.69
2018-10-19T04:32:34.544Z,92.6
2018-10-19T04:33:34.556Z,92.79
2018-10-19T04:34:34.534Z,92.69
2018-10-19T04:35:34.527Z,92.5
2018-10-19T04:36:34.527Z,92.41
2018-10-19T04:37:34.508Z,92.6
2018-10-19T04:38:34.511Z,92.5
2018-10-19T04:39:34.486Z,92.5
2018-10-19T04:40:34.494Z,92.6
2018-10-19T04:41:34.847Z,92.88
2018-10-19T04:42:34.470Z,92.12
2018-10-19T04:43:34.455Z,92.6
2018-10-19T04:44:34.474Z,92.6
2018-10-19T04:45:34.454Z,92.6
2018-10-19T04:46:34.178Z,92.6
2018-10-19T04:47:34.505Z,92.6
2018-10-19T04:48:34.436Z,92.5
2018-10-19T04:49:34.399Z,92.6
2018-10-19T04:50:34.404Z,92.6
2018-10-19T04:51:34.131Z,92.79
2018-10-19T04:52:34.134Z,92.6
2018-10-19T04:53:34.438Z,92.41
2018-10-19T04:54:34.376Z,92.5
2018-10-19T04:55:34.347Z,92.41
2018-10-19T04:56:34.356Z,92.5
2018-10-19T04:57:34.330Z,92.22
2018-10-19T04:58:34.328Z,92.41
2018-10-19T04:59:34.321Z,92.6
2018-10-19T05:00:34.322Z,92.03
2018-10-19T05:01:34.305Z,92.41
2018-10-19T05:02:34.447Z,92.5
2018-10-19T05:03:34.295Z,92.6
2018-10-19T05:04:34.426Z,92.5
2018-10-19T05:05:34.607Z,93.08
2018-10-19T05:06:34.431Z,92.98
2018-10-19T05:07:34.244Z,93.08
2018-10-19T05:08:34.270Z,92.88
2018-10-19T05:09:34.239Z,92.98
2018-10-19T05:10:33.980Z,92.98
2018-10-19T05:11:34.210Z,93.08
2018-10-19T05:12:34.052Z,92.98
2018-10-19T05:13:34.203Z,93.17
2018-10-19T05:14:34.185Z,93.12
2018-10-19T05:15:34.180Z,93.36
2018-10-19T05:16:34.187Z,92.93
2018-10-19T05:17:34.179Z,92.93
2018-10-19T05:18:34.150Z,92.84
2018-10-19T05:19:34.139Z,92.93
2018-10-19T05:20:34.135Z,93.12
2018-10-19T05:21:34.145Z,93.03
2018-10-19T05:22:34.122Z,93.22
2018-10-19T05:23:34.181Z,93.51
2018-10-19T05:24:34.173Z,93.32
2018-10-19T05:25:34.110Z,93.51
2018-10-19T05:26:33.830Z,92.84
2018-10-19T05:27:34.073Z,92.84
2018-10-19T05:28:34.084Z,93.22
2018-10-19T05:29:34.053Z,93.22
2018-10-19T05:30:34.059Z,92.93
2018-10-19T05:31:34.036Z,93.03
2018-10-19T05:32:34.057Z,93.12
2018-10-19T05:33:34.033Z,92.55
2018-10-19T05:34:34.010Z,93.03
2018-10-19T05:35:34.000Z,92.93
2018-10-19T05:36:33.992Z,93.03
2018-10-19T05:37:34.002Z,93.22
2018-10-19T05:38:33.978Z,93.32
2018-10-19T05:39:33.980Z,93.41
2018-10-19T05:40:33.962Z,93.51
2018-10-19T05:41:33.964Z,93.51
2018-10-19T05:42:33.938Z,93.22
2018-10-19T05:43:34.054Z,93.32
2018-10-19T05:44:33.918Z,93.7
2018-10-19T05:45:33.927Z,93.22
2018-10-19T05:46:33.918Z,93.41
2018-10-19T05:47:33.909Z,93.32
2018-10-19T05:48:33.882Z,93.41
2018-10-19T05:49:33.874Z,93.88
2018-10-19T05:50:33.887Z,93.79
2018-10-19T05:51:33.873Z,93.51
2018-10-19T05:52:33.846Z,93.79
2018-10-19T05:53:33.856Z,93.22
2018-10-19T05:54:33.840Z,93.41
2018-10-19T05:55:33.581Z,93.32
2018-10-19T05:56:33.813Z,93.7
2018-10-19T05:57:33.826Z,92.93
2018-10-19T05:58:33.793Z,93.7
2018-10-19T05:59:33.807Z,93.22
2018-10-19T06:00:33.780Z,93.7
2018-10-19T06:01:33.785Z,93.32
2018-10-19T06:02:33.941Z,93.32
2018-10-19T06:03:33.766Z,93.7
2018-10-19T06:04:33.488Z,93.6
2018-10-19T06:05:33.731Z,93.79
2018-10-19T06:06:33.731Z,93.6
2018-10-19T06:07:33.741Z,93.51
2018-10-19T06:08:33.724Z,93.6
2018-10-19T06:09:33.693Z,93.51
2018-10-19T06:10:33.705Z,93.22
2018-10-19T06:11:33.681Z,93.22
2018-10-19T06:12:33.690Z,93.22
2018-10-19T06:13:33.766Z,93.7
2018-10-19T06:14:33.667Z,93.37
2018-10-19T06:15:33.640Z,93.46
2018-10-19T06:16:33.648Z,93.65
2018-10-19T06:17:33.632Z,93.65
2018-10-19T06:18:33.627Z,93.65
2018-10-19T06:19:33.628Z,94.03
2018-10-19T06:20:33.595Z,93.93
2018-10-19T06:21:33.586Z,93.74
2018-10-19T06:22:33.591Z,93.88
2018-10-19T06:23:33.587Z,93.84
2018-10-19T06:24:33.576Z,93.79
2018-10-19T06:25:33.550Z,93.6
2018-10-19T06:26:33.311Z,93.22
2018-10-19T06:27:33.531Z,93.12
2018-10-19T06:28:33.541Z,93.22
2018-10-19T06:29:33.513Z,93.6
2018-10-19T06:30:33.517Z,93.7
2018-10-19T06:31:33.514Z,93.6
2018-10-19T06:32:33.490Z,93.41
2018-10-19T06:33:33.541Z,93.32
2018-10-19T06:34:33.479Z,93.7
2018-10-19T06:35:33.478Z,93.41
2018-10-19T06:36:33.450Z,93.41
2018-10-19T06:37:33.441Z,93.6
2018-10-19T06:38:33.450Z,93.7
2018-10-19T06:39:33.445Z,93.51
2018-10-19T06:40:33.207Z,92.84
2018-10-19T06:41:33.405Z,93.7
2018-10-19T06:42:33.412Z,93.7
2018-10-19T06:43:33.403Z,93.32
2018-10-19T06:44:33.378Z,92.84
2018-10-19T06:45:33.130Z,92.65
2018-10-19T06:46:33.495Z,93.03
2018-10-19T06:47:33.369Z,92.84
2018-10-19T06:48:33.407Z,93.32
2018-10-19T06:49:33.351Z,93.12
2018-10-19T06:50:33.338Z,93.12
2018-10-19T06:51:33.078Z,93.22
2018-10-19T06:52:33.307Z,93.03
2018-10-19T06:53:33.298Z,92.93
2018-10-19T06:54:33.303Z,92.46
2018-10-19T06:55:33.043Z,92.55
2018-10-19T06:56:33.298Z,92.84
2018-10-19T06:57:33.264Z,92.46
2018-10-19T06:58:33.270Z,92.55
2018-10-19T06:59:33.122Z,92.79
2018-10-19T07:00:32.997Z,92.98
2018-10-19T07:01:33.229Z,92.69
2018-10-19T07:02:33.236Z,92.5
2018-10-19T07:03:33.214Z,92.03
2018-10-19T07:04:33.231Z,92.22
2018-10-19T07:05:33.366Z,92.5
2018-10-19T07:06:33.192Z,92.41
2018-10-19T07:07:33.176Z,92.41
2018-10-19T07:08:32.930Z,92.6
2018-10-19T07:09:33.165Z,92.41
2018-10-19T07:10:33.167Z,92.41
2018-10-19T07:11:33.160Z,92.5
2018-10-19T07:12:32.895Z,92.41
2018-10-19T07:13:33.127Z,92.41
2018-10-19T07:14:33.132Z,92.5
2018-10-19T07:15:33.157Z,92.12
2018-10-19T07:16:33.117Z,92.41
2018-10-19T07:17:33.092Z,92.5
2018-10-19T07:18:33.099Z,92.5
2018-10-19T07:19:33.073Z,92.5
2018-10-19T07:20:33.085Z,92.12
2018-10-19T07:21:33.168Z,91.93
2018-10-19T07:22:33.053Z,91.83
2018-10-19T07:23:33.044Z,91.74
2018-10-19T07:24:33.059Z,91.93
2018-10-19T07:25:33.071Z,91.17
2018-10-19T07:26:33.022Z,91.36
2018-10-19T07:27:33.010Z,91.5
2018-10-19T07:28:33.004Z,91.31
2018-10-19T07:29:33.166Z,91.6
2018-10-19T07:30:32.994Z,91.12
2018-10-19T07:31:32.995Z,91.31
2018-10-19T07:32:32.970Z,91.5
2018-10-19T07:33:32.977Z,91.41
2018-10-19T07:34:32.963Z,91.31
2018-10-19T07:35:32.691Z,91.21
2018-10-19T07:36:33.185Z,91.31
2018-10-19T07:37:32.928Z,91.41
2018-10-19T07:38:32.929Z,91.21
2018-10-19T07:39:32.664Z,90.55
2018-10-19T07:40:32.923Z,90.93
2018-10-19T07:41:32.918Z,90.64
2018-10-19T07:42:33.042Z,90.73
2018-10-19T07:43:32.884Z,90.55
2018-10-19T07:44:32.878Z,90.93
2018-10-19T07:45:32.624Z,90.64
2018-10-19T07:46:32.861Z,90.64
2018-10-19T07:47:32.987Z,91.02
2018-10-19T07:48:33.002Z,90.93
2018-10-19T07:49:32.594Z,90.64
2018-10-19T07:50:32.573Z,90.17
2018-10-19T07:51:32.578Z,90.5
2018-10-19T07:52:32.806Z,90.07
2018-10-19T07:53:32.562Z,90.31
2018-10-19T07:54:32.978Z,90.17
2018-10-19T07:55:32.850Z,90.31
2018-10-19T07:56:32.779Z,90.55
2018-10-19T07:57:32.776Z,90.11
2018-10-19T07:58:32.774Z,90.11
2018-10-19T07:59:32.773Z,90.21
2018-10-19T08:00:32.845Z,90.21
2018-10-19T08:01:32.502Z,90.36
2018-10-19T08:02:32.737Z,90.17
2018-10-19T08:03:32.750Z,90.26
2018-10-19T08:04:32.716Z,90.36
2018-10-19T08:05:32.729Z,90.45
2018-10-19T08:06:32.704Z,89.97
2018-10-19T08:07:32.710Z,90.21
2018-10-19T08:08:32.689Z,90.17
2018-10-19T08:09:32.696Z,90.4
2018-10-19T08:10:32.687Z,89.83
2018-10-19T08:11:32.768Z,89.83
2018-10-19T08:12:32.659Z,89.92
2018-10-19T08:13:32.664Z,89.83
2018-10-19T08:14:32.647Z,89.92
2018-10-19T08:15:32.382Z,90.02
2018-10-19T08:16:32.629Z,90.4
2018-10-19T08:17:32.386Z,89.92
2018-10-19T08:18:32.621Z,89.83
2018-10-19T08:19:32.626Z,90.21
2018-10-19T08:20:32.600Z,90.02
2018-10-19T08:21:32.615Z,89.73
2018-10-19T08:22:32.582Z,89.83
2018-10-19T08:23:32.594Z,89.92
2018-10-19T08:24:32.317Z,89.92
2018-10-19T08:25:32.578Z,89.83
2018-10-19T08:26:32.571Z,89.83
2018-10-19T08:27:32.683Z,89.92
2018-10-19T08:28:32.558Z,89.73
2018-10-19T08:29:32.292Z,89.92
2018-10-19T08:30:32.529Z,90.11
2018-10-19T08:31:32.522Z,89.92
2018-10-19T08:32:32.509Z,89.49
2018-10-19T08:33:32.520Z,89.01
2018-10-19T08:34:32.541Z,88.73
2018-10-19T08:35:32.510Z,89.11
2018-10-19T08:36:32.479Z,88.63
2018-10-19T08:37:32.697Z,88.54
2018-10-19T08:38:32.467Z,89.2
2018-10-19T08:39:32.479Z,89.01
2018-10-19T08:40:32.450Z,89.49
2018-10-19T08:41:32.540Z,89.2
2018-10-19T08:42:32.465Z,89.2
2018-10-19T08:43:32.454Z,88.92
2018-10-19T08:44:32.428Z,88.54
2018-10-19T08:45:32.421Z,88.73
2018-10-19T08:46:32.427Z,88.1
2018-10-19T08:47:32.515Z,88.39
2018-10-19T08:48:32.157Z,87.82
2018-10-19T08:49:32.394Z,87.72
2018-10-19T08:50:32.138Z,87.05
2018-10-19T08:51:32.397Z,87.24
2018-10-19T08:52:32.377Z,87.72
2018-10-19T08:53:32.543Z,87.53
2018-10-19T08:54:32.412Z,86.9
2018-10-19T08:55:32.396Z,86.96
2018-10-19T08:56:32.351Z,87.29
2018-10-19T08:57:32.383Z,87.09
2018-10-19T08:58:32.370Z,87.09
2018-10-19T08:59:32.344Z,86.8
2018-10-19T09:00:32.318Z,86.61
2018-10-19T09:01:32.313Z,86.9
2018-10-19T09:02:32.064Z,87.09
2018-10-19T09:03:32.138Z,86.43
2018-10-19T09:04:32.311Z,86.47
2018-10-19T09:05:32.289Z,86.66
2018-10-19T09:06:32.294Z,86.08
2018-10-19T09:07:32.274Z,85.41
2018-10-19T09:08:32.285Z,84.55
2018-10-19T09:09:32.265Z,84.65
2018-10-19T09:10:32.281Z,84.79
2018-10-19T09:11:32.535Z,85.27
2018-10-19T09:12:32.407Z,84.98
2018-10-19T09:13:32.243Z,85.55
2018-10-19T09:14:32.258Z,84.5
2018-10-19T09:15:32.230Z,83.73
2018-10-19T09:16:32.246Z,84.12
2018-10-19T09:17:32.216Z,84.79
2018-10-19T09:18:32.449Z,84.59
2018-10-19T09:19:32.227Z,84.06
2018-10-19T09:20:32.218Z,83.11
2018-10-19T09:21:31.944Z,82.34
2018-10-19T09:22:32.204Z,83.01
2018-10-19T09:23:32.182Z,84.16
2018-10-19T09:24:32.198Z,84.12
2018-10-19T09:25:32.172Z,84.16
2018-10-19T09:26:32.194Z,83.49
2018-10-19T09:27:31.910Z,83.68
2018-10-19T09:28:31.922Z,83.39
2018-10-19T09:29:32.312Z,82.73
2018-10-19T09:30:32.152Z,82.57
2018-10-19T09:31:32.144Z,81.9
2018-10-19T09:32:32.153Z,82.09
2018-10-19T09:33:32.152Z,81.86
2018-10-19T09:34:32.131Z,82.34
2018-10-19T09:35:32.261Z,82.53
2018-10-19T09:36:32.794Z,82.38
2018-10-19T09:37:32.128Z,81.71
2018-10-19T09:38:32.110Z,82.19
2018-10-19T09:39:32.118Z,81.9
2018-10-19T09:40:31.843Z,82.29
2018-10-19T09:41:31.852Z,81.04
2018-10-19T09:42:32.090Z,80.99
2018-10-19T09:43:32.084Z,81.27
2018-10-19T09:44:32.097Z,80.6
2018-10-19T09:45:32.073Z,80.12
2018-10-19T09:46:32.069Z,79.83
2018-10-19T09:47:32.172Z,80.51
2018-10-19T09:48:32.081Z,81.33
2018-10-19T09:49:32.070Z,81.04
2018-10-19T09:50:32.054Z,80.37
2018-10-19T09:51:32.045Z,80.85
2018-10-19T09:52:31.789Z,80.66
2018-10-19T09:53:32.053Z,80.94
2018-10-19T09:54:32.037Z,80.47
2018-10-19T09:55:31.785Z,80.66
2018-10-19T09:56:32.019Z,81.23
2018-10-19T09:57:31.776Z,81.33
2018-10-19T09:58:31.759Z,81.37
2018-10-19T09:59:32.023Z,81.18
2018-10-19T10:00:32.000Z,79.93
2018-10-19T10:01:32.014Z,78.92
2018-10-19T10:02:32.003Z,79.21
2018-10-19T10:03:32.005Z,78.25
2018-10-19T10:04:31.980Z,79.26
2018-10-19T10:05:31.979Z,78.88
2018-10-19T10:06:31.984Z,79.55
2018-10-19T10:07:31.992Z,80.03
2018-10-19T10:08:31.965Z,80.32
2018-10-19T10:09:31.977Z,79.45
2018-10-19T10:10:31.959Z,79.45
2018-10-19T10:11:31.969Z,79.16
2018-10-19T10:12:31.944Z,78.88
2018-10-19T10:13:31.704Z,79.36
2018-10-19T10:14:31.936Z,79.64
2018-10-19T10:15:31.851Z,79.55
2018-10-19T10:16:31.958Z,78.97
2018-10-19T10:17:31.953Z,78.69
2018-10-19T10:18:31.980Z,78.02
2018-10-19T10:19:31.935Z,78.2
2018-10-19T10:20:31.910Z,77.34
2018-10-19T10:21:31.905Z,77.92
2018-10-19T10:22:31.922Z,78.3
2018-10-19T10:23:31.916Z,79.07
2018-10-19T10:24:31.911Z,79.16
2018-10-19T10:25:31.887Z,77.92
2018-10-19T10:26:31.897Z,77.25
2018-10-19T10:27:31.878Z,77.06
2018-10-19T10:28:31.891Z,76.96
2018-10-19T10:29:31.867Z,76.67
2018-10-19T10:30:31.880Z,77.34
2018-10-19T10:31:32.108Z,77.63
2018-10-19T10:32:32.016Z,77.06
2018-10-19T10:33:31.850Z,77.15
2018-10-19T10:34:31.864Z,77.34
2018-10-19T10:35:31.859Z,77.15
2018-10-19T10:36:31.838Z,77.15
2018-10-19T10:37:31.831Z,77.15
2018-10-19T10:38:31.844Z,77.06
2018-10-19T10:39:31.842Z,76.96
2018-10-19T10:40:31.838Z,75.95
2018-10-19T10:41:31.563Z,76.42
2018-10-19T10:42:31.825Z,76.52
2018-10-19T10:43:31.811Z,76.77
2018-10-19T10:44:31.563Z,76.86
2018-10-19T10:45:31.804Z,76.96
2018-10-19T10:46:31.818Z,75.95
2018-10-19T10:47:31.793Z,75.56
2018-10-19T10:48:31.544Z,75.56
2018-10-19T10:49:31.777Z,75.56
2018-10-19T10:50:31.779Z,75.37
2018-10-19T10:51:31.518Z,75.27
2018-10-19T10:52:31.783Z,75.27
2018-10-19T10:53:31.779Z,75.37
2018-10-19T10:54:31.760Z,75.18
2018-10-19T10:55:31.757Z,75.81
2018-10-19T10:56:31.747Z,75.52
2018-10-19T10:57:31.765Z,75.04
2018-10-19T10:58:31.741Z,74.85
2018-10-19T10:59:31.742Z,74.37
2018-10-19T11:00:31.748Z,74.37
2018-10-19T11:01:31.473Z,74.76
2018-10-19T11:02:31.732Z,74.85
2018-10-19T11:03:31.716Z,75.62
2018-10-19T11:04:31.477Z,75.71
2018-10-19T11:05:31.716Z,75.23
2018-10-19T11:06:31.716Z,74.98
2018-10-19T11:07:32.226Z,74.89
2018-10-19T11:08:31.712Z,75.43
2018-10-19T11:09:31.719Z,75.08
2018-10-19T11:10:31.439Z,74.89
2018-10-19T11:11:31.681Z,73.65
2018-10-19T11:12:31.680Z,72.59
2018-10-19T11:13:31.692Z,72.2
2018-10-19T11:14:31.674Z,72.11
2018-10-19T11:15:31.693Z,73.26
2018-10-19T11:16:31.407Z,73.03
2018-10-19T11:17:31.673Z,73.22
2018-10-19T11:18:31.406Z,73.51
2018-10-19T11:19:31.663Z,74.18
2018-10-19T11:20:31.640Z,73.9
2018-10-19T11:21:31.655Z,73.99
2018-10-19T11:22:31.649Z,73.7
2018-10-19T11:23:31.645Z,74.27
2018-10-19T11:24:31.623Z,74.37
2018-10-19T11:25:31.643Z,74.37
2018-10-19T11:26:31.628Z,73.61
2018-10-19T11:27:31.609Z,73.13
2018-10-19T11:28:31.603Z,72.74
2018-10-19T11:29:31.618Z,72.9
2018-10-19T11:30:31.659Z,72.13
2018-10-19T11:31:31.605Z,72.03
2018-10-19T11:32:31.587Z,72.32
2018-10-19T11:33:31.589Z,72.32
2018-10-19T11:34:31.576Z,72.48
2018-10-19T11:35:31.585Z,73.05
2018-10-19T11:36:31.562Z,72.58
2018-10-19T11:37:31.618Z,73.24
2018-10-19T11:38:31.304Z,72.77
2018-10-19T11:39:31.544Z,71.91
2018-10-19T11:40:31.300Z,71.81
2018-10-19T11:41:31.553Z,72.67
2018-10-19T11:42:31.544Z,73.05
2018-10-19T11:43:31.523Z,73.82
2018-10-19T11:44:31.517Z,73.54
2018-10-19T11:45:31.532Z,73.82
2018-10-19T11:46:31.508Z,73.54
2018-10-19T11:47:31.520Z,74.01
2018-10-19T11:48:31.494Z,74.45
2018-10-19T11:49:31.505Z,74.36
2018-10-19T11:50:31.533Z,74.74
2018-10-19T11:51:31.482Z,75.02
2018-10-19T11:52:31.492Z,74.16
2018-10-19T11:53:31.467Z,74.74
2018-10-19T11:54:31.466Z,75.02
2018-10-19T11:55:31.205Z,75.31
2018-10-19T11:56:31.211Z,75.35
2018-10-19T11:57:31.466Z,75.54
2018-10-19T11:58:31.445Z,74.68
2018-10-19T11:59:31.442Z,74.77
2018-10-19T12:00:31.429Z,74.77
2018-10-19T12:01:31.439Z,74.58
2018-10-19T12:02:31.422Z,74.05
2018-10-19T12:03:31.567Z,73.44
2018-10-19T12:04:31.154Z,73.76
2018-10-19T12:05:31.419Z,72.8
2018-10-19T12:06:31.143Z,73.28
2018-10-19T12:07:31.406Z,72.13
2018-10-19T12:08:31.386Z,71.37
2018-10-19T12:09:31.404Z,71.17
2018-10-19T12:10:31.468Z,71.23
2018-10-19T12:11:31.397Z,72.09
2018-10-19T12:12:31.364Z,72.09
2018-10-19T12:13:31.360Z,73.05
2018-10-19T12:14:31.373Z,72.96
2018-10-19T12:15:31.370Z,73.82
2018-10-19T12:16:31.519Z,73.63
2018-10-19T12:17:31.360Z,73.72
2018-10-19T12:18:31.338Z,73.54
2018-10-19T12:19:31.339Z,73.72
2018-10-19T12:20:31.331Z,73.91
2018-10-19T12:21:31.460Z,73.54
2018-10-19T12:22:31.303Z,73.82
2018-10-19T12:23:31.317Z,73.44
2018-10-19T12:24:31.300Z,73.34
2018-10-19T12:25:31.314Z,74.01
2018-10-19T12:26:31.038Z,73.54
2018-10-19T12:27:31.298Z,73.72
2018-10-19T12:28:31.271Z,74.4
2018-10-19T12:29:31.266Z,74.4
2018-10-19T12:30:31.275Z,74.3
2018-10-19T12:31:31.287Z,74.77
2018-10-19T12:32:31.268Z,74.77
2018-10-19T12:33:31.243Z,75.07
2018-10-19T12:34:30.996Z,73.91
2018-10-19T12:35:31.357Z,72.29
2018-10-19T12:36:30.991Z,72.19
2018-10-19T12:37:31.229Z,72.29
2018-10-19T12:38:31.233Z,72.19
2018-10-19T12:39:30.957Z,72
2018-10-19T12:40:31.220Z,72.16
2018-10-19T12:41:30.945Z,72.73
2018-10-19T12:42:30.946Z,71.68
2018-10-19T12:43:31.218Z,71.87
2018-10-19T12:44:30.928Z,72.73
2018-10-19T12:45:31.174Z,73.11
2018-10-19T12:46:31.181Z,73.02
2018-10-19T12:47:31.411Z,73.11
2018-10-19T12:48:31.175Z,73.59
2018-10-19T12:49:31.155Z,73.11
2018-10-19T12:50:31.160Z,73.11
2018-10-19T12:51:31.140Z,73.02
2018-10-19T12:52:30.895Z,72.25
2018-10-19T12:53:31.126Z,72.16
2018-10-19T12:54:31.417Z,72.06
2018-10-19T12:55:31.121Z,71.77
2018-10-19T12:56:31.135Z,72.06